createdAt,value
2023-03-11T00:00:19.990Z,100365.22
2023-03-11T00:02:49.106Z,100364.09
2023-03-11T00:05:19.069Z,100367.75
2023-03-11T00:07:47.288Z,100378.28
2023-03-11T00:10:16.827Z,100382.63
2023-03-11T00:12:45.499Z,100380.84
2023-03-11T00:15:15.658Z,100380.69
2023-03-11T00:17:44.018Z,100381.56
2023-03-11T00:20:18.940Z,100364.84
2023-03-11T00:22:47.496Z,100370.19
2023-03-11T00:25:16.278Z,100359.53
2023-03-11T00:27:44.777Z,100379.13
2023-03-11T00:30:16.316Z,100375.50
2023-03-11T00:32:44.783Z,100367.75
2023-03-11T00:35:15.480Z,100367.03
2023-03-11T00:37:44.248Z,100358.28
2023-03-11T00:40:14.647Z,100355.88
2023-03-11T00:42:42.777Z,100358.53
2023-03-11T00:45:12.748Z,100362.16
2023-03-11T00:47:42.682Z,100355.16
2023-03-11T00:50:15.714Z,100355.03
2023-03-11T00:52:43.688Z,100356.84
2023-03-11T00:55:11.987Z,100351.50
2023-03-11T00:57:40.209Z,100346.94
2023-03-11T01:00:11.869Z,100342.53
2023-03-11T01:02:41.601Z,100340.63
2023-03-11T01:05:10.341Z,100337.97
2023-03-11T01:07:38.466Z,100327.31
2023-03-11T01:10:07.687Z,100336.28
2023-03-11T01:12:35.605Z,100330.34
2023-03-11T01:15:04.667Z,100326.97
2023-03-11T01:17:32.679Z,100324.31
2023-03-11T01:20:02.028Z,100331.41
2023-03-11T01:22:29.888Z,100323.44
2023-03-11T01:24:57.824Z,100312.06
2023-03-11T01:27:25.723Z,100294.41
2023-03-11T01:29:53.695Z,100299.72
2023-03-11T01:32:21.653Z,100300.78
2023-03-11T01:34:49.586Z,100323.19
2023-03-11T01:37:20.273Z,100323.19
2023-03-11T01:39:48.190Z,100313.53
2023-03-11T01:42:16.341Z,100301.16
2023-03-11T01:44:44.288Z,100310.88
2023-03-11T01:47:40.603Z,100295.81
2023-03-11T01:50:13.705Z,100288.06
2023-03-11T01:52:44.328Z,100277.41
2023-03-11T01:55:14.945Z,100275.69
2023-03-11T01:57:45.105Z,100264.22
2023-03-11T02:00:15.739Z,100263.38
2023-03-11T02:02:47.086Z,100262.53
2023-03-11T02:05:15.421Z,100267.84
2023-03-11T02:07:45.049Z,100265.56
2023-03-11T02:10:14.664Z,100267.50
2023-03-11T02:12:43.697Z,100262.41
2023-03-11T02:15:13.283Z,100254.69
2023-03-11T02:17:43.630Z,100258.28
2023-03-11T02:20:22.477Z,100261.78
2023-03-11T02:22:57.113Z,100262.66
2023-03-11T02:25:32.213Z,100253.81
2023-03-11T02:28:04.228Z,100241.38
2023-03-11T02:30:34.885Z,100240.41
2023-03-11T02:33:03.673Z,100244.63
2023-03-11T02:35:33.128Z,100248.13
2023-03-11T02:38:01.171Z,100250.78
2023-03-11T02:40:53.129Z,100245.34
2023-03-11T02:43:26.112Z,100240.75
2023-03-11T02:45:55.549Z,100237.00
2023-03-11T02:48:24.080Z,100229.97
2023-03-11T02:50:53.681Z,100226.59
2023-03-11T02:53:21.655Z,100221.28
2023-03-11T02:55:49.910Z,100221.28
2023-03-11T02:58:17.790Z,100223.94
2023-03-11T03:00:47.210Z,100228.19
2023-03-11T03:03:15.890Z,100230.94
2023-03-11T03:05:43.739Z,100229.88
2023-03-11T03:08:11.777Z,100236.03
2023-03-11T03:10:39.835Z,100236.03
2023-03-11T03:13:07.836Z,100236.16
2023-03-11T03:15:35.687Z,100238.69
2023-03-11T03:18:05.233Z,100243.28
2023-03-11T03:20:33.485Z,100245.09
2023-03-11T03:23:01.980Z,100238.94
2023-03-11T03:25:29.939Z,100235.28
2023-03-11T03:27:57.843Z,100239.91
2023-03-11T03:30:25.890Z,100232.75
2023-03-11T03:32:53.858Z,100219.59
2023-03-11T03:35:23.362Z,100201.94
2023-03-11T03:37:51.252Z,100206.50
2023-03-11T03:40:19.575Z,100212.66
2023-03-11T03:42:47.532Z,100211.97
2023-03-11T03:45:15.440Z,100213.03
2023-03-11T03:47:43.550Z,100219.47
2023-03-11T03:50:14.351Z,100222.34
2023-03-11T03:52:43.592Z,100211.09
2023-03-11T03:55:12.955Z,100214.03
2023-03-11T03:57:41.571Z,100215.09
2023-03-11T04:00:10.885Z,100217.03
2023-03-11T04:02:39.456Z,100213.53
2023-03-11T04:05:08.630Z,100223.44
2023-03-11T04:07:36.875Z,100212.94
2023-03-11T04:10:08.031Z,100232.41
2023-03-11T04:12:36.030Z,100229.03
2023-03-11T04:15:04.023Z,100226.59
2023-03-11T04:17:31.939Z,100214.38
2023-03-11T04:20:00.058Z,100210.84
2023-03-11T04:22:28.115Z,100211.81
2023-03-11T04:24:55.947Z,100212.94
2023-03-11T04:27:25.235Z,100210.38
2023-03-11T04:29:53.183Z,100210.38
2023-03-11T04:32:22.574Z,100214.97
2023-03-11T04:34:50.890Z,100213.03
2023-03-11T04:37:18.780Z,100219.31
2023-03-11T04:39:46.619Z,100206.88
2023-03-11T04:42:15.813Z,100207.00
2023-03-11T04:44:45.113Z,100196.34
2023-03-11T04:47:13.019Z,100206.88
2023-03-11T04:49:40.990Z,100199.97
2023-03-11T04:52:08.933Z,100198.03
2023-03-11T04:54:37.500Z,100186.44
2023-03-11T04:57:05.715Z,100182.91
2023-03-11T04:59:33.698Z,100206.88
2023-03-11T05:02:03.033Z,100223.78
2023-03-11T05:04:31.032Z,100239.63
2023-03-11T05:06:59.079Z,100240.50
2023-03-11T05:09:27.030Z,100242.06
2023-03-11T05:11:54.974Z,100236.50
2023-03-11T05:14:22.881Z,100239.03
2023-03-11T05:16:50.898Z,100237.97
2023-03-11T05:19:32.446Z,100214.75
2023-03-11T05:22:00.275Z,100200.72
2023-03-11T05:24:28.343Z,100198.78
2023-03-11T05:26:56.994Z,100216.44
2023-03-11T05:29:26.082Z,100203.00
2023-03-11T05:31:54.455Z,100205.56
2023-03-11T05:34:24.097Z,100201.91
2023-03-11T05:36:52.060Z,100204.34
2023-03-11T05:39:19.973Z,100216.56
2023-03-11T05:41:49.137Z,100208.44
2023-03-11T05:44:17.149Z,100218.13
2023-03-11T05:46:45.092Z,100219.09
2023-03-11T05:49:13.003Z,100225.38
2023-03-11T05:51:42.346Z,100224.41
2023-03-11T05:54:15.227Z,100237.47
2023-03-11T05:56:43.959Z,100236.50
2023-03-11T05:59:13.746Z,100237.25
2023-03-11T06:01:44.183Z,100239.16
2023-03-11T06:04:12.727Z,100236.50
2023-03-11T06:06:42.640Z,100246.44
2023-03-11T06:09:13.923Z,100253.56
2023-03-11T06:11:42.153Z,100247.41
2023-03-11T06:14:12.983Z,100260.72
2023-03-11T06:16:41.242Z,100247.28
2023-03-11T06:19:09.390Z,100251.41
2023-03-11T06:21:37.376Z,100271.09
2023-03-11T06:24:07.362Z,100260.34
2023-03-11T06:26:35.482Z,100254.91
2023-03-11T06:29:04.082Z,100264.59
2023-03-11T06:31:32.388Z,100264.34
2023-03-11T06:34:00.526Z,100265.06
2023-03-11T06:36:28.514Z,100256.09
2023-03-11T06:38:56.611Z,100250.56
2023-03-11T06:41:26.301Z,100247.88
2023-03-11T06:43:54.269Z,100247.88
2023-03-11T06:46:24.980Z,100241.59
2023-03-11T06:48:53.710Z,100231.69
2023-03-11T06:51:22.457Z,100242.34
2023-03-11T06:53:51.919Z,100241.34
2023-03-11T06:56:21.168Z,100244.03
2023-03-11T06:58:51.183Z,100251.25
2023-03-11T07:01:20.762Z,100250.69
2023-03-11T07:03:50.402Z,100246.91
2023-03-11T07:06:20.232Z,100244.03
2023-03-11T07:08:49.175Z,100253.81
2023-03-11T07:11:20.186Z,100260.00
2023-03-11T07:13:48.507Z,100257.34
2023-03-11T07:16:19.909Z,100253.69
2023-03-11T07:18:49.333Z,100265.94
2023-03-11T07:21:21.200Z,100256.84
2023-03-11T07:23:52.976Z,100253.97
2023-03-11T07:26:21.028Z,100258.19
2023-03-11T07:28:49.534Z,100250.09
2023-03-11T07:31:20.355Z,100259.66
2023-03-11T07:33:48.617Z,100270.91
2023-03-11T07:36:18.743Z,100264.47
2023-03-11T07:38:47.566Z,100267.03
2023-03-11T07:41:16.855Z,100266.53
2023-03-11T07:43:45.257Z,100257.19
2023-03-11T07:46:18.494Z,100262.16
2023-03-11T07:48:48.287Z,100251.97
2023-03-11T07:51:17.919Z,100243.75
2023-03-11T07:53:46.938Z,100247.97
2023-03-11T07:56:16.753Z,100250.53
2023-03-11T07:58:45.904Z,100256.31
2023-03-11T08:01:16.800Z,100255.06
2023-03-11T08:03:46.824Z,100261.75
2023-03-11T08:06:17.900Z,100260.41
2023-03-11T08:08:45.947Z,100259.16
2023-03-11T08:11:15.094Z,100258.66
2023-03-11T08:13:43.400Z,100253.78
2023-03-11T08:16:13.874Z,100256.78
2023-03-11T08:18:41.949Z,100247.94
2023-03-11T08:21:12.688Z,100259.34
2023-03-11T08:23:43.175Z,100266.09
2023-03-11T08:26:14.821Z,100262.94
2023-03-11T08:28:43.145Z,100268.00
2023-03-11T08:31:15.221Z,100269.44
2023-03-11T08:33:43.761Z,100274.97
2023-03-11T08:36:12.100Z,100274.00
2023-03-11T08:38:41.632Z,100283.44
2023-03-11T08:41:09.800Z,100278.69
2023-03-11T08:43:39.015Z,100277.56
2023-03-11T08:46:08.080Z,100278.75
2023-03-11T08:48:37.828Z,100265.16
2023-03-11T08:51:11.009Z,100273.75
2023-03-11T08:53:38.982Z,100275.75
2023-03-11T08:56:09.232Z,100261.91
2023-03-11T08:58:37.508Z,100250.31
2023-03-11T09:01:05.976Z,100244.88
2023-03-11T09:03:35.456Z,100242.25
2023-03-11T09:06:05.283Z,100242.44
2023-03-11T09:08:33.465Z,100254.66
2023-03-11T09:11:01.686Z,100241.19
2023-03-11T09:13:33.335Z,100241.75
2023-03-11T09:16:01.555Z,100247.53
2023-03-11T09:18:29.592Z,100238.41
2023-03-11T09:20:58.532Z,100253.06
2023-03-11T09:23:26.923Z,100242.66
2023-03-11T09:25:54.874Z,100244.66
2023-03-11T09:28:23.556Z,100243.00
2023-03-11T09:30:53.375Z,100239.50
2023-03-11T09:33:21.351Z,100225.56
2023-03-11T09:35:49.393Z,100240.78
2023-03-11T09:38:17.335Z,100249.66
2023-03-11T09:40:53.604Z,100244.47
2023-03-11T09:43:35.968Z,100235.31
2023-03-11T09:46:27.504Z,100237.41
2023-03-11T09:49:02.135Z,100227.44
2023-03-11T09:51:34.089Z,100233.81
2023-03-11T09:54:06.150Z,100229.72
2023-03-11T09:56:37.141Z,100227.03
2023-03-11T09:59:10.453Z,100224.88
2023-03-11T10:01:43.951Z,100230.75
2023-03-11T10:04:17.955Z,100233.13
2023-03-11T10:06:47.020Z,100243.50
2023-03-11T10:09:34.568Z,100236.44
2023-03-11T10:12:20.314Z,100248.41
2023-03-11T10:15:05.120Z,100250.69
2023-03-11T10:17:54.104Z,100260.97
2023-03-11T10:20:28.123Z,100264.41
2023-03-11T10:23:09.093Z,100255.97
2023-03-11T10:25:51.102Z,100257.09
2023-03-11T10:28:21.388Z,100254.41
2023-03-11T10:30:54.295Z,100252.56
2023-03-11T10:33:30.509Z,100253.84
2023-03-11T10:36:04.324Z,100256.94
2023-03-11T10:38:36.037Z,100256.69
2023-03-11T10:41:08.586Z,100258.22
2023-03-11T10:43:40.305Z,100259.31
2023-03-11T10:46:15.938Z,100248.88
2023-03-11T10:48:45.431Z,100251.94
2023-03-11T10:51:18.114Z,100248.72
2023-03-11T10:53:48.334Z,100235.56
2023-03-11T10:56:27.252Z,100240.19
2023-03-11T10:58:55.354Z,100227.72
2023-03-11T11:01:23.754Z,100234.03
2023-03-11T11:03:55.585Z,100231.47
2023-03-11T11:06:28.971Z,100224.66
2023-03-11T11:09:08.389Z,100233.97
2023-03-11T11:11:36.646Z,100229.44
2023-03-11T11:14:04.622Z,100233.53
2023-03-11T11:16:35.207Z,100227.72
2023-03-11T11:19:09.188Z,100220.50
2023-03-11T11:21:39.427Z,100215.97
2023-03-11T11:24:27.334Z,100222.88
2023-03-11T11:27:06.188Z,100213.00
2023-03-11T11:29:34.869Z,100215.81
2023-03-11T11:32:19.131Z,100209.78
2023-03-11T11:34:59.804Z,100210.63
2023-03-11T11:37:31.983Z,100217.06
2023-03-11T11:40:11.194Z,100209.72
2023-03-11T11:42:41.504Z,100201.06
2023-03-11T11:45:16.302Z,100196.44
2023-03-11T11:47:50.084Z,100194.22
2023-03-11T11:50:27.391Z,100179.91
2023-03-11T11:52:58.524Z,100185.34
2023-03-11T11:55:29.672Z,100185.00
2023-03-11T11:57:58.655Z,100172.91
2023-03-11T12:00:46.057Z,100172.06
2023-03-11T12:03:45.660Z,100167.06
2023-03-11T12:06:24.809Z,100177.78
2023-03-11T12:09:05.497Z,100165.53
2023-03-11T12:11:41.921Z,100164.78
2023-03-11T12:14:19.583Z,100163.28
2023-03-11T12:16:54.938Z,100172.19
2023-03-11T12:19:34.263Z,100153.91
2023-03-11T12:22:36.708Z,100159.66
2023-03-11T12:25:28.242Z,100160.34
2023-03-11T12:28:04.873Z,100155.47
2023-03-11T12:30:34.828Z,100157.19
2023-03-11T12:33:06.579Z,100145.25
2023-03-11T12:35:37.126Z,100143.75
2023-03-11T12:38:19.724Z,100134.53
2023-03-11T12:40:50.021Z,100131.19
2023-03-11T12:44:11.936Z,100124.00
2023-03-11T12:47:17.821Z,100123.84
2023-03-11T12:49:47.383Z,100129.91
2023-03-11T12:52:21.103Z,100143.72
2023-03-11T12:55:11.594Z,100144.03
2023-03-11T12:57:53.360Z,100142.00
2023-03-11T13:00:30.585Z,100134.75
2023-03-11T13:03:26.840Z,100135.19
2023-03-11T13:06:01.821Z,100132.13
2023-03-11T13:08:37.129Z,100126.53
2023-03-11T13:11:43.574Z,100135.72
2023-03-11T13:14:23.033Z,100128.91
2023-03-11T13:16:51.368Z,100127.19
2023-03-11T13:19:49.610Z,100124.13
2023-03-11T13:23:06.896Z,100121.69
2023-03-11T13:25:40.325Z,100122.97
2023-03-11T13:28:33.633Z,100125.66
2023-03-11T13:31:15.825Z,100125.28
2023-03-11T13:33:50.798Z,100123.09
2023-03-11T13:36:26.897Z,100124.22
2023-03-11T13:39:20.918Z,100125.59
2023-03-11T13:41:49.431Z,100122.06
2023-03-11T13:44:29.640Z,100119.03
2023-03-11T13:47:03.942Z,100112.44
2023-03-11T13:49:41.357Z,100121.81
2023-03-11T13:52:11.413Z,100124.94
2023-03-11T13:54:45.159Z,100116.38
2023-03-11T13:57:29.235Z,100109.94
2023-03-11T14:00:05.660Z,100103.53
2023-03-11T14:02:33.838Z,100092.41
2023-03-11T14:05:07.074Z,100095.88
2023-03-11T14:07:38.966Z,100089.97
2023-03-11T14:10:33.998Z,100101.03
2023-03-11T14:13:18.050Z,100085.84
2023-03-11T14:15:54.033Z,100088.41
2023-03-11T14:18:35.969Z,100090.72
2023-03-11T14:21:05.904Z,100095.69
2023-03-11T14:23:37.561Z,100085.44
2023-03-11T14:26:09.058Z,100087.41
2023-03-11T14:28:41.605Z,100082.06
2023-03-11T14:31:24.527Z,100090.22
2023-03-11T14:34:04.364Z,100093.63
2023-03-11T14:36:40.620Z,100098.16
2023-03-11T14:39:24.137Z,100091.91
2023-03-11T14:41:54.844Z,100088.72
2023-03-11T14:44:24.741Z,100077.00
2023-03-11T14:46:59.673Z,100092.06
2023-03-11T14:49:27.828Z,100085.72
2023-03-11T14:52:02.921Z,100095.59
2023-03-11T14:54:35.543Z,100084.88
2023-03-11T14:57:08.144Z,100075.84
2023-03-11T14:59:38.601Z,100081.53
2023-03-11T15:02:34.753Z,100082.66
2023-03-11T15:05:07.487Z,100076.91
2023-03-11T15:07:36.759Z,100080.75
2023-03-11T15:10:09.896Z,100067.34
2023-03-11T15:12:42.519Z,100077.81
2023-03-11T15:15:27.919Z,100078.97
2023-03-11T15:17:59.676Z,100078.25
2023-03-11T15:20:31.621Z,100088.13
2023-03-11T15:23:02.140Z,100075.75
2023-03-11T15:25:33.287Z,100075.75
2023-03-11T15:28:14.624Z,100067.88
2023-03-11T15:30:42.645Z,100063.19
2023-03-11T15:33:24.144Z,100066.03
2023-03-11T15:35:52.103Z,100059.97
2023-03-11T15:38:23.716Z,100062.78
2023-03-11T15:40:55.688Z,100063.97
2023-03-11T15:43:29.650Z,100054.91
2023-03-11T15:45:59.187Z,100050.41
2023-03-11T15:48:30.055Z,100047.88
2023-03-11T15:50:59.706Z,100044.38
2023-03-11T15:53:29.354Z,100048.19
2023-03-11T15:56:06.949Z,100042.97
2023-03-11T15:58:38.229Z,100045.66
2023-03-11T16:01:06.583Z,100047.63
2023-03-11T16:03:35.882Z,100041.44
2023-03-11T16:06:03.775Z,100040.88
2023-03-11T16:08:32.136Z,100032.84
2023-03-11T16:11:00.021Z,100049.91
2023-03-11T16:13:28.178Z,100062.63
2023-03-11T16:15:56.188Z,100066.31
2023-03-11T16:18:24.128Z,100060.22
2023-03-11T16:20:56.286Z,100051.53
2023-03-11T16:23:26.694Z,100065.75
2023-03-11T16:25:58.676Z,100059.22
2023-03-11T16:28:26.563Z,100056.28
2023-03-11T16:30:54.555Z,100054.97
2023-03-11T16:33:22.804Z,100054.69
2023-03-11T16:35:51.203Z,100054.38
2023-03-11T16:38:23.112Z,100054.91
2023-03-11T16:40:58.101Z,100059.13
2023-03-11T16:43:26.694Z,100043.06
2023-03-11T16:45:55.054Z,100046.72
2023-03-11T16:48:23.010Z,100061.13
2023-03-11T16:50:51.241Z,100056.88
2023-03-11T16:53:20.667Z,100049.56
2023-03-11T16:55:49.128Z,100052.91
2023-03-11T16:58:17.349Z,100065.31
2023-03-11T17:00:45.736Z,100063.63
2023-03-11T17:03:14.218Z,100061.13
2023-03-11T17:05:42.505Z,100061.34
2023-03-11T17:08:11.289Z,100066.63
2023-03-11T17:10:42.827Z,100060.38
2023-03-11T17:13:12.260Z,100056.31
2023-03-11T17:15:42.548Z,100052.03
2023-03-11T17:18:10.779Z,100063.69
2023-03-11T17:20:40.787Z,100062.94
2023-03-11T17:23:08.790Z,100062.94
2023-03-11T17:25:42.655Z,100064.38
2023-03-11T17:28:10.926Z,100062.22
2023-03-11T17:30:43.718Z,100067.50
2023-03-11T17:33:12.168Z,100078.13
2023-03-11T17:35:40.840Z,100068.31
2023-03-11T17:40:56.288Z,100061.19
2023-03-11T17:43:24.851Z,100072.09
2023-03-11T17:45:53.804Z,100064.25
2023-03-11T17:48:22.164Z,100075.69
2023-03-11T17:50:50.585Z,100078.03
2023-03-11T17:53:18.567Z,100076.34
2023-03-11T17:55:46.741Z,100076.53
2023-03-11T17:58:31.436Z,100078.38
2023-03-11T18:00:59.842Z,100094.13
2023-03-11T18:03:27.718Z,100093.81
2023-03-11T18:05:56.620Z,100120.13
2023-03-11T18:08:24.606Z,100099.50
2023-03-11T18:10:53.104Z,100109.72
2023-03-11T18:13:21.569Z,100125.00
2023-03-11T18:15:58.511Z,100107.19
2023-03-11T18:18:26.707Z,100105.50
2023-03-11T18:20:54.711Z,100119.94
2023-03-11T18:23:22.646Z,100129.19
2023-03-11T18:25:52.665Z,100117.59
2023-03-11T18:28:21.137Z,100133.41
2023-03-11T18:30:49.114Z,100143.13
2023-03-11T18:33:18.654Z,100133.72
2023-03-11T18:35:46.693Z,100132.41
2023-03-11T18:38:15.827Z,100137.06
2023-03-11T18:40:44.468Z,100151.50
2023-03-11T18:43:14.768Z,100147.34
2023-03-11T18:45:42.810Z,100151.69
2023-03-11T18:48:11.259Z,100140.00
2023-03-11T18:50:40.687Z,100156.22
2023-03-11T18:53:09.967Z,100162.97
2023-03-11T18:55:38.022Z,100144.03
2023-03-11T18:58:09.404Z,100149.56
2023-03-11T19:00:37.660Z,100139.81
2023-03-11T19:03:05.547Z,100149.72
2023-03-11T19:05:33.628Z,100126.69
2023-03-11T19:08:04.253Z,100142.97
2023-03-11T19:10:32.536Z,100156.41
2023-03-11T19:13:00.586Z,100150.03
2023-03-11T19:15:28.864Z,100153.16
2023-03-11T19:18:06.341Z,100161.94
2023-03-11T19:20:36.250Z,100166.28
2023-03-11T19:23:06.623Z,100159.91
2023-03-11T19:25:35.426Z,100161.09
2023-03-11T19:28:03.895Z,100174.34
2023-03-11T19:30:32.001Z,100186.75
2023-03-11T19:32:59.973Z,100185.38
2023-03-11T19:35:27.949Z,100188.06
2023-03-11T19:37:57.483Z,100169.28
2023-03-11T19:40:30.164Z,100171.00
2023-03-11T19:42:59.423Z,100174.50
2023-03-11T19:45:29.641Z,100166.59
2023-03-11T19:48:00.430Z,100160.09
2023-03-11T19:50:28.482Z,100180.00
2023-03-11T19:52:56.568Z,100182.88
2023-03-11T19:55:24.530Z,100169.59
2023-03-11T19:57:53.999Z,100172.97
2023-03-11T20:00:24.135Z,100174.97
2023-03-11T20:02:52.343Z,100186.22
2023-03-11T20:05:20.975Z,100192.22
2023-03-11T20:07:49.041Z,100200.44
2023-03-11T20:10:17.737Z,100211.72
2023-03-11T20:13:01.186Z,100190.53
2023-03-11T20:15:31.862Z,100200.97
2023-03-11T20:18:01.102Z,100214.84
2023-03-11T20:20:29.761Z,100196.75
2023-03-11T20:22:58.185Z,100192.84
2023-03-11T20:25:31.090Z,100194.53
2023-03-11T20:27:59.643Z,100212.25
2023-03-11T20:30:28.328Z,100199.13
2023-03-11T20:32:58.353Z,100201.59
2023-03-11T20:35:26.783Z,100206.25
2023-03-11T20:37:54.862Z,100196.44
2023-03-11T20:40:23.235Z,100217.53
2023-03-11T20:42:51.909Z,100212.50
2023-03-11T20:45:22.160Z,100222.50
2023-03-11T20:47:53.806Z,100212.69
2023-03-11T20:50:24.444Z,100225.81
2023-03-11T20:52:52.457Z,100224.41
2023-03-11T20:55:21.878Z,100227.47
2023-03-11T20:57:49.901Z,100220.81
2023-03-11T21:00:18.762Z,100233.22
2023-03-11T21:02:47.625Z,100225.97
2023-03-11T21:05:15.928Z,100217.06
2023-03-11T21:07:45.630Z,100234.38
2023-03-11T21:10:14.507Z,100241.53
2023-03-11T21:12:43.642Z,100239.84
2023-03-11T21:15:12.689Z,100259.34
2023-03-11T21:17:40.624Z,100267.75
2023-03-11T21:20:09.181Z,100266.38
2023-03-11T21:22:37.392Z,100275.19
2023-03-11T21:25:08.709Z,100261.06
2023-03-11T21:27:36.778Z,100270.84
2023-03-11T21:30:06.625Z,100256.69
2023-03-11T21:32:35.434Z,100269.44
2023-03-11T21:35:04.875Z,100258.72
2023-03-11T21:37:33.232Z,100266.06
2023-03-11T21:40:01.679Z,100270.44
2023-03-11T21:42:31.788Z,100272.41
2023-03-11T21:45:00.746Z,100287.78
2023-03-11T21:47:33.439Z,100282.47
2023-03-11T21:50:01.673Z,100290.53
2023-03-11T21:52:29.861Z,100287.97
2023-03-11T21:54:58.308Z,100286.16
2023-03-11T21:57:26.434Z,100298.78
2023-03-11T21:59:55.877Z,100288.13
2023-03-11T22:02:23.895Z,100288.13
2023-03-11T22:04:52.581Z,100282.47
2023-03-11T22:07:22.479Z,100305.63
2023-03-11T22:09:53.008Z,100297.41
2023-03-11T22:12:21.158Z,100299.34
2023-03-11T22:14:49.217Z,100309.69
2023-03-11T22:17:18.828Z,100302.47
2023-03-11T22:19:47.214Z,100308.41
2023-03-11T22:22:15.439Z,100314.91
2023-03-11T22:24:43.402Z,100312.38
2023-03-11T22:27:11.429Z,100328.31
2023-03-11T22:29:40.731Z,100326.19
2023-03-11T22:32:08.755Z,100345.66
2023-03-11T22:34:38.156Z,100326.72
2023-03-11T22:37:08.929Z,100316.00
2023-03-11T22:39:37.373Z,100348.31
2023-03-11T22:42:05.515Z,100337.06
2023-03-11T22:44:33.683Z,100333.69
2023-03-11T22:47:01.700Z,100358.38
2023-03-11T22:49:29.650Z,100351.34
2023-03-11T22:51:59.225Z,100356.25
2023-03-11T22:54:27.505Z,100358.53
2023-03-11T22:56:55.808Z,100369.13
2023-03-11T22:59:27.326Z,100369.78
2023-03-11T23:01:55.647Z,100362.06
2023-03-11T23:04:23.671Z,100362.91
2023-03-11T23:06:54.496Z,100362.91
2023-03-11T23:09:24.636Z,100358.28
2023-03-11T23:11:55.153Z,100360.13
2023-03-11T23:14:30.619Z,100376.63
2023-03-11T23:17:06.220Z,100370.84
2023-03-11T23:19:34.311Z,100371.16
2023-03-11T23:22:02.241Z,100383.03
2023-03-11T23:24:31.988Z,100391.09
2023-03-11T23:26:59.803Z,100404.22
2023-03-11T23:29:27.711Z,100417.06
2023-03-11T23:31:55.727Z,100422.28
2023-03-11T23:34:23.674Z,100412.72
2023-03-11T23:36:51.668Z,100405.94
2023-03-11T23:39:19.573Z,100424.41
2023-03-11T23:41:49.212Z,100409.47
2023-03-11T23:44:17.104Z,100403.38
2023-03-11T23:46:48.009Z,100411.53
2023-03-11T23:49:16.175Z,100406.06
2023-03-11T23:51:44.453Z,100404.56
2023-03-11T23:54:12.367Z,100406.78
2023-03-11T23:56:40.247Z,100395.34
2023-03-11T23:59:09.542Z,100390.13
